sensor_id;sensor_type;location;lat;lon;timestamp;P1;durP1;ratioP1;P2;durP2;ratioP2
12871;SDS011;6504;53.766;9.626;2023-05-07T00:01:31;12.10;;;11.07;;
12871;SDS011;6504;53.766;9.626;2023-05-07T00:03:59;11.87;;;10.77;;
12871;SDS011;6504;53.766;9.626;2023-05-07T00:06:28;11.33;;;10.33;;
12871;SDS011;6504;53.766;9.626;2023-05-07T00:08:57;12.03;;;10.87;;
12871;SDS011;6504;53.766;9.626;2023-05-07T00:11:27;11.60;;;10.50;;
12871;SDS011;6504;53.766;9.626;2023-05-07T00:13:55;12.27;;;11.17;;
12871;SDS011;6504;53.766;9.626;2023-05-07T00:16:23;12.83;;;11.63;;
12871;SDS011;6504;53.766;9.626;2023-05-07T00:18:52;12.20;;;11.10;;
12871;SDS011;6504;53.766;9.626;2023-05-07T00:21:20;12.27;;;11.00;;
12871;SDS011;6504;53.766;9.626;2023-05-07T00:23:48;12.10;;;11.00;;
12871;SDS011;6504;53.766;9.626;2023-05-07T00:26:17;11.43;;;10.43;;
12871;SDS011;6504;53.766;9.626;2023-05-07T00:28:45;11.23;;;10.13;;
12871;SDS011;6504;53.766;9.626;2023-05-07T00:31:13;12.13;;;11.03;;
12871;SDS011;6504;53.766;9.626;2023-05-07T00:33:41;12.33;;;11.23;;
12871;SDS011;6504;53.766;9.626;2023-05-07T00:36:09;12.17;;;11.07;;
12871;SDS011;6504;53.766;9.626;2023-05-07T00:38:37;12.67;;;11.47;;
12871;SDS011;6504;53.766;9.626;2023-05-07T00:41:05;11.73;;;10.63;;
12871;SDS011;6504;53.766;9.626;2023-05-07T00:43:35;12.60;;;11.40;;
12871;SDS011;6504;53.766;9.626;2023-05-07T00:46:03;12.00;;;10.90;;
12871;SDS011;6504;53.766;9.626;2023-05-07T00:48:31;12.47;;;11.30;;
12871;SDS011;6504;53.766;9.626;2023-05-07T00:50:59;12.40;;;11.20;;
12871;SDS011;6504;53.766;9.626;2023-05-07T00:53:27;12.63;;;11.33;;
12871;SDS011;6504;53.766;9.626;2023-05-07T00:55:56;11.70;;;10.60;;
12871;SDS011;6504;53.766;9.626;2023-05-07T00:58:24;11.63;;;10.53;;
12871;SDS011;6504;53.766;9.626;2023-05-07T01:00:54;11.17;;;10.07;;
12871;SDS011;6504;53.766;9.626;2023-05-07T01:03:22;11.30;;;10.20;;
12871;SDS011;6504;53.766;9.626;2023-05-07T01:05:50;11.83;;;10.73;;
12871;SDS011;6504;53.766;9.626;2023-05-07T01:08:20;12.20;;;11.00;;
12871;SDS011;6504;53.766;9.626;2023-05-07T01:10:52;12.53;;;11.33;;
12871;SDS011;6504;53.766;9.626;2023-05-07T01:13:20;12.57;;;11.37;;
12871;SDS011;6504;53.766;9.626;2023-05-07T01:15:49;12.70;;;11.40;;
12871;SDS011;6504;53.766;9.626;2023-05-07T01:18:18;11.73;;;10.73;;
12871;SDS011;6504;53.766;9.626;2023-05-07T01:20:48;12.43;;;11.17;;
12871;SDS011;6504;53.766;9.626;2023-05-07T01:23:17;12.63;;;11.43;;
12871;SDS011;6504;53.766;9.626;2023-05-07T01:25:50;12.40;;;11.20;;
12871;SDS011;6504;53.766;9.626;2023-05-07T01:28:19;12.70;;;11.50;;
12871;SDS011;6504;53.766;9.626;2023-05-07T01:30:49;13.30;;;11.90;;
12871;SDS011;6504;53.766;9.626;2023-05-07T01:33:20;11.90;;;10.80;;
12871;SDS011;6504;53.766;9.626;2023-05-07T01:35:50;13.50;;;12.17;;
12871;SDS011;6504;53.766;9.626;2023-05-07T01:38:21;12.87;;;11.57;;
12871;SDS011;6504;53.766;9.626;2023-05-07T01:40:50;12.47;;;11.37;;
12871;SDS011;6504;53.766;9.626;2023-05-07T01:43:18;12.30;;;11.10;;
12871;SDS011;6504;53.766;9.626;2023-05-07T01:45:47;13.07;;;11.77;;
12871;SDS011;6504;53.766;9.626;2023-05-07T01:48:16;13.03;;;11.73;;
12871;SDS011;6504;53.766;9.626;2023-05-07T01:50:45;12.50;;;11.17;;
12871;SDS011;6504;53.766;9.626;2023-05-07T01:53:14;12.27;;;11.07;;
12871;SDS011;6504;53.766;9.626;2023-05-07T01:55:43;13.40;;;12.10;;
12871;SDS011;6504;53.766;9.626;2023-05-07T01:58:11;12.50;;;11.30;;
12871;SDS011;6504;53.766;9.626;2023-05-07T02:00:39;13.00;;;11.70;;
12871;SDS011;6504;53.766;9.626;2023-05-07T02:03:08;12.23;;;11.10;;
12871;SDS011;6504;53.766;9.626;2023-05-07T02:05:36;12.40;;;11.17;;
12871;SDS011;6504;53.766;9.626;2023-05-07T02:08:04;12.57;;;11.37;;
12871;SDS011;6504;53.766;9.626;2023-05-07T02:10:32;11.97;;;10.87;;
12871;SDS011;6504;53.766;9.626;2023-05-07T02:13:02;12.13;;;10.93;;
12871;SDS011;6504;53.766;9.626;2023-05-07T02:15:30;11.67;;;10.50;;
12871;SDS011;6504;53.766;9.626;2023-05-07T02:17:58;11.10;;;10.10;;
12871;SDS011;6504;53.766;9.626;2023-05-07T02:20:27;12.47;;;11.30;;
12871;SDS011;6504;53.766;9.626;2023-05-07T02:22:55;11.57;;;10.47;;
12871;SDS011;6504;53.766;9.626;2023-05-07T02:25:23;11.90;;;10.70;;
12871;SDS011;6504;53.766;9.626;2023-05-07T02:27:51;12.70;;;11.10;;
12871;SDS011;6504;53.766;9.626;2023-05-07T02:30:21;12.00;;;10.80;;
12871;SDS011;6504;53.766;9.626;2023-05-07T02:32:49;11.90;;;10.73;;
12871;SDS011;6504;53.766;9.626;2023-05-07T02:35:18;12.47;;;10.63;;
12871;SDS011;6504;53.766;9.626;2023-05-07T02:37:46;11.90;;;10.73;;
12871;SDS011;6504;53.766;9.626;2023-05-07T02:40:14;11.63;;;10.53;;
12871;SDS011;6504;53.766;9.626;2023-05-07T02:42:42;11.70;;;10.50;;
12871;SDS011;6504;53.766;9.626;2023-05-07T02:45:10;11.60;;;10.50;;
12871;SDS011;6504;53.766;9.626;2023-05-07T02:47:39;11.83;;;10.73;;
12871;SDS011;6504;53.766;9.626;2023-05-07T02:50:07;11.13;;;10.13;;
12871;SDS011;6504;53.766;9.626;2023-05-07T02:52:36;12.00;;;10.70;;
12871;SDS011;6504;53.766;9.626;2023-05-07T02:55:04;11.43;;;10.40;;
12871;SDS011;6504;53.766;9.626;2023-05-07T02:57:33;11.03;;;10.00;;
12871;SDS011;6504;53.766;9.626;2023-05-07T03:00:13;11.07;;;10.07;;
12871;SDS011;6504;53.766;9.626;2023-05-07T03:02:43;11.10;;;10.10;;
12871;SDS011;6504;53.766;9.626;2023-05-07T03:05:11;10.70;;;9.70;;
12871;SDS011;6504;53.766;9.626;2023-05-07T03:07:40;10.83;;;9.83;;
12871;SDS011;6504;53.766;9.626;2023-05-07T03:10:11;11.73;;;10.63;;
12871;SDS011;6504;53.766;9.626;2023-05-07T03:12:39;10.83;;;9.83;;
12871;SDS011;6504;53.766;9.626;2023-05-07T03:15:08;10.67;;;9.67;;
12871;SDS011;6504;53.766;9.626;2023-05-07T03:17:36;10.87;;;9.77;;
12871;SDS011;6504;53.766;9.626;2023-05-07T03:20:07;10.43;;;9.43;;
12871;SDS011;6504;53.766;9.626;2023-05-07T03:22:36;11.63;;;10.47;;
12871;SDS011;6504;53.766;9.626;2023-05-07T03:25:05;10.87;;;9.87;;
12871;SDS011;6504;53.766;9.626;2023-05-07T03:27:34;11.23;;;10.13;;
12871;SDS011;6504;53.766;9.626;2023-05-07T03:30:02;9.90;;;8.90;;
12871;SDS011;6504;53.766;9.626;2023-05-07T03:32:33;12.00;;;10.27;;
12871;SDS011;6504;53.766;9.626;2023-05-07T03:35:01;10.90;;;9.80;;
12871;SDS011;6504;53.766;9.626;2023-05-07T03:37:31;10.10;;;9.10;;
12871;SDS011;6504;53.766;9.626;2023-05-07T03:39:59;10.67;;;9.57;;
12871;SDS011;6504;53.766;9.626;2023-05-07T03:42:27;11.33;;;10.23;;
12871;SDS011;6504;53.766;9.626;2023-05-07T03:44:56;11.63;;;10.53;;
12871;SDS011;6504;53.766;9.626;2023-05-07T03:47:24;11.10;;;10.10;;
12871;SDS011;6504;53.766;9.626;2023-05-07T03:49:52;11.13;;;10.10;;
12871;SDS011;6504;53.766;9.626;2023-05-07T03:52:21;11.17;;;10.00;;
12871;SDS011;6504;53.766;9.626;2023-05-07T03:54:53;10.90;;;9.80;;
12871;SDS011;6504;53.766;9.626;2023-05-07T03:57:21;10.70;;;9.70;;
12871;SDS011;6504;53.766;9.626;2023-05-07T03:59:49;11.10;;;10.07;;
12871;SDS011;6504;53.766;9.626;2023-05-07T04:02:17;10.90;;;9.80;;
12871;SDS011;6504;53.766;9.626;2023-05-07T04:04:45;11.53;;;10.43;;
12871;SDS011;6504;53.766;9.626;2023-05-07T04:07:15;11.27;;;10.17;;
12871;SDS011;6504;53.766;9.626;2023-05-07T04:09:43;11.37;;;10.33;;
12871;SDS011;6504;53.766;9.626;2023-05-07T04:12:12;11.60;;;10.40;;
12871;SDS011;6504;53.766;9.626;2023-05-07T04:14:40;11.07;;;9.93;;
12871;SDS011;6504;53.766;9.626;2023-05-07T04:17:08;10.97;;;9.87;;
12871;SDS011;6504;53.766;9.626;2023-05-07T04:19:37;11.43;;;10.33;;
12871;SDS011;6504;53.766;9.626;2023-05-07T04:22:05;11.07;;;9.90;;
12871;SDS011;6504;53.766;9.626;2023-05-07T04:24:33;11.20;;;10.10;;
12871;SDS011;6504;53.766;9.626;2023-05-07T04:27:01;12.47;;;11.27;;
12871;SDS011;6504;53.766;9.626;2023-05-07T04:29:30;11.77;;;10.63;;
12871;SDS011;6504;53.766;9.626;2023-05-07T04:31:58;12.80;;;11.13;;
12871;SDS011;6504;53.766;9.626;2023-05-07T04:34:26;11.07;;;10.03;;
12871;SDS011;6504;53.766;9.626;2023-05-07T04:36:57;11.87;;;10.67;;
12871;SDS011;6504;53.766;9.626;2023-05-07T04:39:25;11.87;;;10.77;;
12871;SDS011;6504;53.766;9.626;2023-05-07T04:41:53;11.47;;;10.33;;
12871;SDS011;6504;53.766;9.626;2023-05-07T04:44:21;11.80;;;10.70;;
12871;SDS011;6504;53.766;9.626;2023-05-07T04:46:51;11.40;;;10.40;;
12871;SDS011;6504;53.766;9.626;2023-05-07T04:49:19;11.37;;;10.30;;
12871;SDS011;6504;53.766;9.626;2023-05-07T04:51:47;11.60;;;10.40;;
12871;SDS011;6504;53.766;9.626;2023-05-07T04:54:15;12.03;;;10.87;;
12871;SDS011;6504;53.766;9.626;2023-05-07T04:56:43;12.37;;;11.07;;
12871;SDS011;6504;53.766;9.626;2023-05-07T04:59:11;11.03;;;9.97;;
12871;SDS011;6504;53.766;9.626;2023-05-07T05:01:39;11.67;;;10.57;;
12871;SDS011;6504;53.766;9.626;2023-05-07T05:04:08;11.77;;;10.67;;
12871;SDS011;6504;53.766;9.626;2023-05-07T05:06:36;11.13;;;10.13;;
12871;SDS011;6504;53.766;9.626;2023-05-07T05:09:04;11.23;;;10.13;;
12871;SDS011;6504;53.766;9.626;2023-05-07T05:11:32;10.90;;;9.80;;
12871;SDS011;6504;53.766;9.626;2023-05-07T05:14:00;10.73;;;9.63;;
12871;SDS011;6504;53.766;9.626;2023-05-07T05:16:28;11.17;;;10.07;;
12871;SDS011;6504;53.766;9.626;2023-05-07T05:18:56;10.63;;;9.63;;
12871;SDS011;6504;53.766;9.626;2023-05-07T05:21:26;11.13;;;10.00;;
12871;SDS011;6504;53.766;9.626;2023-05-07T05:23:54;11.57;;;10.43;;
12871;SDS011;6504;53.766;9.626;2023-05-07T05:26:22;10.80;;;9.80;;
12871;SDS011;6504;53.766;9.626;2023-05-07T05:28:50;11.07;;;10.07;;
12871;SDS011;6504;53.766;9.626;2023-05-07T05:31:18;11.03;;;9.93;;
12871;SDS011;6504;53.766;9.626;2023-05-07T05:33:46;10.97;;;9.87;;
12871;SDS011;6504;53.766;9.626;2023-05-07T05:36:14;10.50;;;9.50;;
12871;SDS011;6504;53.766;9.626;2023-05-07T05:38:43;10.77;;;9.77;;
12871;SDS011;6504;53.766;9.626;2023-05-07T05:41:11;10.73;;;9.73;;
12871;SDS011;6504;53.766;9.626;2023-05-07T05:43:39;10.67;;;9.67;;
12871;SDS011;6504;53.766;9.626;2023-05-07T05:46:07;10.43;;;9.43;;
12871;SDS011;6504;53.766;9.626;2023-05-07T05:48:38;11.23;;;10.23;;
12871;SDS011;6504;53.766;9.626;2023-05-07T05:51:06;10.73;;;9.63;;
12871;SDS011;6504;53.766;9.626;2023-05-07T05:53:34;9.60;;;8.77;;
12871;SDS011;6504;53.766;9.626;2023-05-07T05:56:03;9.00;;;8.20;;
12871;SDS011;6504;53.766;9.626;2023-05-07T05:58:32;10.07;;;8.57;;
12871;SDS011;6504;53.766;9.626;2023-05-07T06:01:00;11.63;;;9.00;;
12871;SDS011;6504;53.766;9.626;2023-05-07T06:03:28;9.63;;;8.73;;
12871;SDS011;6504;53.766;9.626;2023-05-07T06:05:56;9.90;;;8.90;;
12871;SDS011;6504;53.766;9.626;2023-05-07T06:08:28;10.10;;;9.10;;
12871;SDS011;6504;53.766;9.626;2023-05-07T06:10:57;9.07;;;8.17;;
12871;SDS011;6504;53.766;9.626;2023-05-07T06:13:27;8.97;;;8.17;;
12871;SDS011;6504;53.766;9.626;2023-05-07T06:15:56;9.60;;;8.70;;
12871;SDS011;6504;53.766;9.626;2023-05-07T06:18:24;9.83;;;8.83;;
12871;SDS011;6504;53.766;9.626;2023-05-07T06:20:52;9.97;;;8.97;;
12871;SDS011;6504;53.766;9.626;2023-05-07T06:23:21;9.63;;;8.73;;
12871;SDS011;6504;53.766;9.626;2023-05-07T06:25:49;10.90;;;9.80;;
12871;SDS011;6504;53.766;9.626;2023-05-07T06:28:18;10.77;;;9.77;;
12871;SDS011;6504;53.766;9.626;2023-05-07T06:30:47;10.73;;;9.73;;
12871;SDS011;6504;53.766;9.626;2023-05-07T06:33:16;10.27;;;9.27;;
12871;SDS011;6504;53.766;9.626;2023-05-07T06:35:45;10.47;;;9.47;;
12871;SDS011;6504;53.766;9.626;2023-05-07T06:38:13;10.13;;;9.13;;
12871;SDS011;6504;53.766;9.626;2023-05-07T06:40:41;10.10;;;9.20;;
12871;SDS011;6504;53.766;9.626;2023-05-07T06:43:09;9.47;;;8.57;;
12871;SDS011;6504;53.766;9.626;2023-05-07T06:45:37;9.77;;;8.87;;
12871;SDS011;6504;53.766;9.626;2023-05-07T06:48:06;10.30;;;9.30;;
12871;SDS011;6504;53.766;9.626;2023-05-07T06:50:34;9.93;;;8.73;;
12871;SDS011;6504;53.766;9.626;2023-05-07T06:53:02;9.40;;;8.50;;
12871;SDS011;6504;53.766;9.626;2023-05-07T06:55:31;9.80;;;8.80;;
12871;SDS011;6504;53.766;9.626;2023-05-07T06:57:59;9.47;;;8.67;;
12871;SDS011;6504;53.766;9.626;2023-05-07T07:00:27;10.30;;;9.30;;
12871;SDS011;6504;53.766;9.626;2023-05-07T07:02:55;10.27;;;9.33;;
12871;SDS011;6504;53.766;9.626;2023-05-07T07:05:25;9.07;;;8.27;;
12871;SDS011;6504;53.766;9.626;2023-05-07T07:07:53;9.87;;;8.97;;
12871;SDS011;6504;53.766;9.626;2023-05-07T07:10:21;9.73;;;8.83;;
12871;SDS011;6504;53.766;9.626;2023-05-07T07:12:50;9.17;;;8.37;;
12871;SDS011;6504;53.766;9.626;2023-05-07T07:15:19;11.07;;;10.07;;
12871;SDS011;6504;53.766;9.626;2023-05-07T07:17:47;9.73;;;8.60;;
12871;SDS011;6504;53.766;9.626;2023-05-07T07:20:16;10.43;;;8.97;;
12871;SDS011;6504;53.766;9.626;2023-05-07T07:22:45;10.07;;;9.07;;
12871;SDS011;6504;53.766;9.626;2023-05-07T07:25:13;9.13;;;8.30;;
12871;SDS011;6504;53.766;9.626;2023-05-07T07:27:41;9.07;;;8.27;;
12871;SDS011;6504;53.766;9.626;2023-05-07T07:30:09;9.80;;;8.87;;
12871;SDS011;6504;53.766;9.626;2023-05-07T07:32:38;9.77;;;8.77;;
12871;SDS011;6504;53.766;9.626;2023-05-07T07:35:06;8.53;;;7.83;;
12871;SDS011;6504;53.766;9.626;2023-05-07T07:37:36;8.83;;;8.13;;
12871;SDS011;6504;53.766;9.626;2023-05-07T07:40:06;8.07;;;7.37;;
12871;SDS011;6504;53.766;9.626;2023-05-07T07:42:35;7.93;;;7.23;;
12871;SDS011;6504;53.766;9.626;2023-05-07T07:45:03;8.60;;;7.80;;
12871;SDS011;6504;53.766;9.626;2023-05-07T07:47:32;8.67;;;7.87;;
12871;SDS011;6504;53.766;9.626;2023-05-07T07:50:00;8.47;;;7.77;;
12871;SDS011;6504;53.766;9.626;2023-05-07T07:52:28;7.77;;;7.10;;
12871;SDS011;6504;53.766;9.626;2023-05-07T07:54:56;8.10;;;7.30;;
12871;SDS011;6504;53.766;9.626;2023-05-07T07:57:26;9.03;;;8.10;;
12871;SDS011;6504;53.766;9.626;2023-05-07T07:59:54;8.57;;;7.67;;
12871;SDS011;6504;53.766;9.626;2023-05-07T08:02:22;8.43;;;7.63;;
12871;SDS011;6504;53.766;9.626;2023-05-07T08:04:50;7.90;;;7.20;;
12871;SDS011;6504;53.766;9.626;2023-05-07T08:07:18;7.83;;;7.13;;
12871;SDS011;6504;53.766;9.626;2023-05-07T08:09:48;8.07;;;7.37;;
12871;SDS011;6504;53.766;9.626;2023-05-07T08:12:16;7.83;;;7.03;;
12871;SDS011;6504;53.766;9.626;2023-05-07T08:14:46;7.73;;;7.03;;
12871;SDS011;6504;53.766;9.626;2023-05-07T08:17:14;7.03;;;6.33;;
12871;SDS011;6504;53.766;9.626;2023-05-07T08:19:42;7.60;;;7.00;;
12871;SDS011;6504;53.766;9.626;2023-05-07T08:22:10;7.10;;;6.50;;
12871;SDS011;6504;53.766;9.626;2023-05-07T08:24:38;7.63;;;6.93;;
12871;SDS011;6504;53.766;9.626;2023-05-07T08:27:06;7.33;;;6.43;;
12871;SDS011;6504;53.766;9.626;2023-05-07T08:29:34;6.83;;;6.30;;
12871;SDS011;6504;53.766;9.626;2023-05-07T08:32:04;8.03;;;7.30;;
12871;SDS011;6504;53.766;9.626;2023-05-07T08:34:32;7.40;;;6.80;;
12871;SDS011;6504;53.766;9.626;2023-05-07T08:37:00;7.47;;;6.77;;
12871;SDS011;6504;53.766;9.626;2023-05-07T08:39:29;7.17;;;6.57;;
12871;SDS011;6504;53.766;9.626;2023-05-07T08:41:58;7.83;;;7.23;;
12871;SDS011;6504;53.766;9.626;2023-05-07T08:44:28;7.10;;;6.40;;
12871;SDS011;6504;53.766;9.626;2023-05-07T08:47:00;7.53;;;6.73;;
12871;SDS011;6504;53.766;9.626;2023-05-07T08:49:31;7.17;;;6.50;;
12871;SDS011;6504;53.766;9.626;2023-05-07T08:52:00;7.27;;;6.57;;
12871;SDS011;6504;53.766;9.626;2023-05-07T08:54:28;7.60;;;6.47;;
12871;SDS011;6504;53.766;9.626;2023-05-07T08:56:58;7.27;;;6.57;;
12871;SDS011;6504;53.766;9.626;2023-05-07T08:59:26;7.63;;;6.83;;
12871;SDS011;6504;53.766;9.626;2023-05-07T09:01:54;7.13;;;6.53;;
12871;SDS011;6504;53.766;9.626;2023-05-07T09:04:22;7.30;;;6.60;;
12871;SDS011;6504;53.766;9.626;2023-05-07T09:06:51;7.40;;;6.80;;
12871;SDS011;6504;53.766;9.626;2023-05-07T09:09:21;7.10;;;6.40;;
12871;SDS011;6504;53.766;9.626;2023-05-07T09:11:52;7.23;;;6.60;;
12871;SDS011;6504;53.766;9.626;2023-05-07T09:14:24;7.03;;;6.43;;
12871;SDS011;6504;53.766;9.626;2023-05-07T09:16:53;7.80;;;7.20;;
12871;SDS011;6504;53.766;9.626;2023-05-07T09:19:22;7.83;;;7.13;;
12871;SDS011;6504;53.766;9.626;2023-05-07T09:21:58;7.63;;;7.03;;
12871;SDS011;6504;53.766;9.626;2023-05-07T09:24:27;7.33;;;6.70;;
12871;SDS011;6504;53.766;9.626;2023-05-07T09:27:00;7.17;;;6.57;;
12871;SDS011;6504;53.766;9.626;2023-05-07T09:29:28;7.00;;;6.40;;
12871;SDS011;6504;53.766;9.626;2023-05-07T09:32:01;7.57;;;6.87;;
12871;SDS011;6504;53.766;9.626;2023-05-07T09:34:29;7.10;;;6.47;;
12871;SDS011;6504;53.766;9.626;2023-05-07T09:36:59;7.27;;;6.57;;
12871;SDS011;6504;53.766;9.626;2023-05-07T09:39:38;6.80;;;6.20;;
12871;SDS011;6504;53.766;9.626;2023-05-07T09:42:06;6.80;;;6.20;;
12871;SDS011;6504;53.766;9.626;2023-05-07T09:44:35;7.60;;;6.90;;
12871;SDS011;6504;53.766;9.626;2023-05-07T09:47:04;7.00;;;6.33;;
12871;SDS011;6504;53.766;9.626;2023-05-07T09:49:34;6.77;;;6.27;;
12871;SDS011;6504;53.766;9.626;2023-05-07T09:52:05;7.27;;;6.57;;
12871;SDS011;6504;53.766;9.626;2023-05-07T09:54:35;7.57;;;6.87;;
12871;SDS011;6504;53.766;9.626;2023-05-07T09:57:04;6.80;;;6.30;;
12871;SDS011;6504;53.766;9.626;2023-05-07T09:59:33;6.87;;;6.27;;
12871;SDS011;6504;53.766;9.626;2023-05-07T10:02:04;6.60;;;6.10;;
12871;SDS011;6504;53.766;9.626;2023-05-07T10:04:32;6.87;;;6.27;;
12871;SDS011;6504;53.766;9.626;2023-05-07T10:07:01;6.57;;;5.90;;
12871;SDS011;6504;53.766;9.626;2023-05-07T10:09:31;6.20;;;5.70;;
12871;SDS011;6504;53.766;9.626;2023-05-07T10:12:01;6.20;;;5.70;;
12871;SDS011;6504;53.766;9.626;2023-05-07T10:14:29;6.27;;;5.77;;
12871;SDS011;6504;53.766;9.626;2023-05-07T10:16:57;5.83;;;5.33;;
12871;SDS011;6504;53.766;9.626;2023-05-07T10:19:27;6.90;;;6.30;;
12871;SDS011;6504;53.766;9.626;2023-05-07T10:21:59;5.63;;;5.13;;
12871;SDS011;6504;53.766;9.626;2023-05-07T10:24:33;6.37;;;5.87;;
12871;SDS011;6504;53.766;9.626;2023-05-07T10:27:04;6.43;;;5.90;;
12871;SDS011;6504;53.766;9.626;2023-05-07T10:29:38;6.20;;;5.70;;
12871;SDS011;6504;53.766;9.626;2023-05-07T10:32:16;6.30;;;5.70;;
12871;SDS011;6504;53.766;9.626;2023-05-07T10:34:58;5.73;;;5.23;;
12871;SDS011;6504;53.766;9.626;2023-05-07T10:37:29;5.93;;;5.43;;
12871;SDS011;6504;53.766;9.626;2023-05-07T10:39:59;5.83;;;5.33;;
12871;SDS011;6504;53.766;9.626;2023-05-07T10:42:27;5.93;;;5.43;;
12871;SDS011;6504;53.766;9.626;2023-05-07T10:44:56;6.10;;;5.60;;
12871;SDS011;6504;53.766;9.626;2023-05-07T10:47:24;6.43;;;5.50;;
12871;SDS011;6504;53.766;9.626;2023-05-07T10:55:51;5.70;;;5.20;;
12871;SDS011;6504;53.766;9.626;2023-05-07T10:58:51;5.07;;;4.67;;
12871;SDS011;6504;53.766;9.626;2023-05-07T11:04:21;5.70;;;5.30;;
12871;SDS011;6504;53.766;9.626;2023-05-07T11:09:55;5.83;;;5.33;;
12871;SDS011;6504;53.766;9.626;2023-05-07T11:12:48;5.77;;;5.20;;
12871;SDS011;6504;53.766;9.626;2023-05-07T11:18:13;5.60;;;5.10;;
12871;SDS011;6504;53.766;9.626;2023-05-07T11:20:46;6.10;;;5.60;;
12871;SDS011;6504;53.766;9.626;2023-05-07T11:26:30;5.23;;;4.83;;
12871;SDS011;6504;53.766;9.626;2023-05-07T11:29:14;5.67;;;5.07;;
12871;SDS011;6504;53.766;9.626;2023-05-07T11:31:50;5.30;;;4.80;;
12871;SDS011;6504;53.766;9.626;2023-05-07T11:34:21;5.40;;;5.00;;
12871;SDS011;6504;53.766;9.626;2023-05-07T11:36:50;6.40;;;4.97;;
12871;SDS011;6504;53.766;9.626;2023-05-07T11:39:25;5.63;;;5.13;;
12871;SDS011;6504;53.766;9.626;2023-05-07T11:41:54;5.40;;;4.73;;
12871;SDS011;6504;53.766;9.626;2023-05-07T11:44:24;4.97;;;4.57;;
12871;SDS011;6504;53.766;9.626;2023-05-07T11:46:52;4.93;;;4.60;;
12871;SDS011;6504;53.766;9.626;2023-05-07T11:49:20;4.33;;;4.03;;
12871;SDS011;6504;53.766;9.626;2023-05-07T11:51:52;4.97;;;4.57;;
12871;SDS011;6504;53.766;9.626;2023-05-07T11:54:20;5.40;;;4.60;;
12871;SDS011;6504;53.766;9.626;2023-05-07T11:56:48;5.17;;;4.70;;
12871;SDS011;6504;53.766;9.626;2023-05-07T11:59:17;4.57;;;4.20;;
12871;SDS011;6504;53.766;9.626;2023-05-07T12:01:47;4.77;;;4.37;;
12871;SDS011;6504;53.766;9.626;2023-05-07T12:04:19;5.17;;;4.63;;
12871;SDS011;6504;53.766;9.626;2023-05-07T12:06:48;4.97;;;4.53;;
12871;SDS011;6504;53.766;9.626;2023-05-07T12:09:22;5.10;;;4.17;;
12871;SDS011;6504;53.766;9.626;2023-05-07T12:11:51;4.40;;;4.00;;
12871;SDS011;6504;53.766;9.626;2023-05-07T12:14:19;4.50;;;4.20;;
12871;SDS011;6504;53.766;9.626;2023-05-07T12:16:48;4.90;;;4.40;;
12871;SDS011;6504;53.766;9.626;2023-05-07T12:19:16;3.90;;;3.60;;
12871;SDS011;6504;53.766;9.626;2023-05-07T12:21:44;3.90;;;3.60;;
12871;SDS011;6504;53.766;9.626;2023-05-07T12:24:13;3.87;;;3.57;;
12871;SDS011;6504;53.766;9.626;2023-05-07T12:26:42;4.80;;;3.90;;
12871;SDS011;6504;53.766;9.626;2023-05-07T12:29:11;3.40;;;3.10;;
12871;SDS011;6504;53.766;9.626;2023-05-07T12:31:40;4.27;;;3.63;;
12871;SDS011;6504;53.766;9.626;2023-05-07T12:34:09;4.00;;;3.70;;
12871;SDS011;6504;53.766;9.626;2023-05-07T12:36:38;4.47;;;3.23;;
12871;SDS011;6504;53.766;9.626;2023-05-07T12:39:07;3.50;;;3.20;;
12871;SDS011;6504;53.766;9.626;2023-05-07T12:41:36;3.80;;;3.50;;
12871;SDS011;6504;53.766;9.626;2023-05-07T12:44:21;3.63;;;3.33;;
12871;SDS011;6504;53.766;9.626;2023-05-07T12:46:50;3.83;;;3.53;;
12871;SDS011;6504;53.766;9.626;2023-05-07T12:49:20;4.13;;;3.67;;
12871;SDS011;6504;53.766;9.626;2023-05-07T12:51:50;3.70;;;3.40;;
12871;SDS011;6504;53.766;9.626;2023-05-07T12:54:27;3.90;;;3.50;;
12871;SDS011;6504;53.766;9.626;2023-05-07T12:57:02;3.57;;;3.30;;
12871;SDS011;6504;53.766;9.626;2023-05-07T12:59:32;4.80;;;3.57;;
12871;SDS011;6504;53.766;9.626;2023-05-07T13:02:00;3.90;;;3.40;;
12871;SDS011;6504;53.766;9.626;2023-05-07T13:04:30;3.40;;;3.20;;
12871;SDS011;6504;53.766;9.626;2023-05-07T13:06:58;3.77;;;3.47;;
12871;SDS011;6504;53.766;9.626;2023-05-07T13:09:27;3.00;;;2.80;;
12871;SDS011;6504;53.766;9.626;2023-05-07T13:11:55;3.27;;;3.07;;
12871;SDS011;6504;53.766;9.626;2023-05-07T13:14:26;3.50;;;3.20;;
12871;SDS011;6504;53.766;9.626;2023-05-07T13:16:54;2.90;;;2.70;;
12871;SDS011;6504;53.766;9.626;2023-05-07T13:19:22;3.40;;;3.10;;
12871;SDS011;6504;53.766;9.626;2023-05-07T13:21:51;3.10;;;2.90;;
12871;SDS011;6504;53.766;9.626;2023-05-07T13:24:19;3.50;;;3.20;;
12871;SDS011;6504;53.766;9.626;2023-05-07T13:26:47;3.13;;;2.87;;
12871;SDS011;6504;53.766;9.626;2023-05-07T13:29:15;2.97;;;2.77;;
12871;SDS011;6504;53.766;9.626;2023-05-07T13:31:43;3.03;;;2.73;;
12871;SDS011;6504;53.766;9.626;2023-05-07T13:34:14;2.60;;;2.40;;
12871;SDS011;6504;53.766;9.626;2023-05-07T13:36:42;2.73;;;2.53;;
12871;SDS011;6504;53.766;9.626;2023-05-07T13:39:11;2.97;;;2.67;;
12871;SDS011;6504;53.766;9.626;2023-05-07T13:41:39;2.97;;;2.67;;
12871;SDS011;6504;53.766;9.626;2023-05-07T13:44:07;2.70;;;2.50;;
12871;SDS011;6504;53.766;9.626;2023-05-07T13:46:36;2.60;;;2.30;;
12871;SDS011;6504;53.766;9.626;2023-05-07T13:49:04;2.67;;;2.47;;
12871;SDS011;6504;53.766;9.626;2023-05-07T13:51:32;3.43;;;2.77;;
12871;SDS011;6504;53.766;9.626;2023-05-07T13:54:00;2.63;;;2.43;;
12871;SDS011;6504;53.766;9.626;2023-05-07T13:56:29;2.70;;;2.30;;
12871;SDS011;6504;53.766;9.626;2023-05-07T13:58:58;2.47;;;2.27;;
12871;SDS011;6504;53.766;9.626;2023-05-07T14:01:26;2.43;;;2.23;;
12871;SDS011;6504;53.766;9.626;2023-05-07T14:03:55;2.87;;;2.33;;
12871;SDS011;6504;53.766;9.626;2023-05-07T14:06:24;3.33;;;2.47;;
12871;SDS011;6504;53.766;9.626;2023-05-07T14:08:52;3.00;;;2.50;;
12871;SDS011;6504;53.766;9.626;2023-05-07T14:11:20;2.67;;;2.20;;
12871;SDS011;6504;53.766;9.626;2023-05-07T14:13:49;2.20;;;2.10;;
12871;SDS011;6504;53.766;9.626;2023-05-07T14:16:17;2.70;;;2.50;;
12871;SDS011;6504;53.766;9.626;2023-05-07T14:18:45;2.40;;;2.20;;
12871;SDS011;6504;53.766;9.626;2023-05-07T14:21:13;2.50;;;2.30;;
12871;SDS011;6504;53.766;9.626;2023-05-07T14:23:41;2.47;;;2.27;;
12871;SDS011;6504;53.766;9.626;2023-05-07T14:26:09;3.10;;;2.30;;
12871;SDS011;6504;53.766;9.626;2023-05-07T14:28:37;2.40;;;2.20;;
12871;SDS011;6504;53.766;9.626;2023-05-07T14:31:07;2.20;;;2.00;;
12871;SDS011;6504;53.766;9.626;2023-05-07T14:33:36;2.80;;;2.60;;
12871;SDS011;6504;53.766;9.626;2023-05-07T14:36:07;3.53;;;2.50;;
12871;SDS011;6504;53.766;9.626;2023-05-07T14:38:35;2.90;;;2.70;;
12871;SDS011;6504;53.766;9.626;2023-05-07T14:41:03;2.50;;;2.30;;
12871;SDS011;6504;53.766;9.626;2023-05-07T14:43:31;2.57;;;2.37;;
12871;SDS011;6504;53.766;9.626;2023-05-07T14:45:59;2.30;;;2.10;;
12871;SDS011;6504;53.766;9.626;2023-05-07T14:48:28;3.10;;;2.43;;
12871;SDS011;6504;53.766;9.626;2023-05-07T14:50:56;2.63;;;2.30;;
12871;SDS011;6504;53.766;9.626;2023-05-07T14:53:24;2.30;;;2.10;;
12871;SDS011;6504;53.766;9.626;2023-05-07T14:55:52;2.40;;;2.20;;
12871;SDS011;6504;53.766;9.626;2023-05-07T14:58:21;2.33;;;2.20;;
12871;SDS011;6504;53.766;9.626;2023-05-07T15:00:49;3.30;;;1.90;;
12871;SDS011;6504;53.766;9.626;2023-05-07T15:03:17;3.27;;;2.23;;
12871;SDS011;6504;53.766;9.626;2023-05-07T15:05:46;2.00;;;1.90;;
12871;SDS011;6504;53.766;9.626;2023-05-07T15:08:17;2.03;;;1.83;;
12871;SDS011;6504;53.766;9.626;2023-05-07T15:10:45;2.43;;;2.27;;
12871;SDS011;6504;53.766;9.626;2023-05-07T15:13:13;2.57;;;2.37;;
12871;SDS011;6504;53.766;9.626;2023-05-07T15:15:41;2.60;;;2.20;;
12871;SDS011;6504;53.766;9.626;2023-05-07T15:18:10;2.40;;;2.20;;
12871;SDS011;6504;53.766;9.626;2023-05-07T15:20:38;1.90;;;1.80;;